This is the latest recevied weather packets stored in our database for station/object IW1QQG-13. If no packets are shown the sender has not sent any weather packets the latest 10 day(s).
| Time | Temp. | Humidity | Pressure | Rain* | Wind** | Luminosity | Snow |
|---|---|---|---|---|---|---|---|
| 1777627825 | 17.78° C | 55% | 1025.7 hPa | 0 mm | - | 70 W/m² | - |
| 1777627225 | 18.33° C | 54% | 1025.7 hPa | 0 mm | - | 51 W/m² | - |
| 1777626625 | 18.89° C | 55% | 1025.7 hPa | 0 mm | - | 30 W/m² | - |
| 1777626025 | 18.33° C | 56% | 1025.7 hPa | 0 mm | - | 18 W/m² | - |
| 1777625425 | 18.33° C | 56% | 1025.7 hPa | 0 mm | - | - | - |
| 1777624825 | 18.33° C | 57% | 1025.4 hPa | 0 mm | - | - | - |
| 1777624225 | 18.33° C | 57% | 1025.4 hPa | 0 mm | - | - | - |
| 1777623624 | 18.89° C | 60% | 1025.1 hPa | 0 mm | - | 0 W/m² | - |
| 1777623025 | 18.33° C | 60% | 1025.1 hPa | 0 mm | - | - | - |
| 1777622424 | 18.33° C | 60% | 1025.1 hPa | 0 mm | - | - | - |
| 1777621825 | 18.33° C | 60% | 1025.1 hPa | 0 mm | - | - | - |
| 1777621225 | 18.33° C | 61% | 1025.1 hPa | 0 mm | - | - | - |
| 1777620625 | 17.78° C | 62% | 1024.7 hPa | 0 mm | - | - | - |
| 1777620025 | 18.33° C | 61% | 1024.7 hPa | 0 mm | - | - | - |
| 1777619424 | 18.33° C | 60% | 1024.7 hPa | 0 mm | - | - | - |
| 1777618824 | 18.33° C | 58% | 1024.4 hPa | 0 mm | - | 305 W/m² | - |
| 1777618224 | 17.78° C | 62% | 1024.7 hPa | 0 mm | - | 270 W/m² | - |
| 1777617624 | 17.78° C | 59% | 1024.7 hPa | 0 mm | - | 76 W/m² | - |
| 1777617024 | 18.33° C | 55% | 1024.4 hPa | 0 mm | - | 218 W/m² | - |
| 1777616424 | 18.89° C | 53% | 1024.4 hPa | 0 mm | - | 188 W/m² | - |
| 1777615825 | 17.78° C | 50% | 1024.4 hPa | 0 mm | - | 62 W/m² | - |
| 1777615224 | 17.22° C | 53% | 1024.4 hPa | 0 mm | - | 58 W/m² | - |
| 1777614625 | 16.67° C | 52% | 1024 hPa | 0 mm | - | 52 W/m² | - |
| 1777614024 | 16.11° C | 54% | 1024 hPa | 0 mm | - | 46 W/m² | - |
| 1777613424 | 15.56° C | 51% | 1023.7 hPa | 0 mm | - | 74 W/m² | - |
* Rain latest hour (hover to see other rain measurements)
** Current wind speed in m/s (hover to see current wind gust speed)